createdAt,value
2023-05-10T00:01:42.113Z,99.90
2023-05-10T00:04:10.488Z,99.90
2023-05-10T00:06:38.814Z,99.90
2023-05-10T00:09:07.190Z,99.90
2023-05-10T00:11:36.834Z,99.90
2023-05-10T00:14:05.704Z,99.90
2023-05-10T00:16:34.017Z,99.90
2023-05-10T00:19:02.100Z,99.90
2023-05-10T00:21:30.501Z,99.90
2023-05-10T00:23:58.890Z,99.90
2023-05-10T00:26:27.178Z,99.90
2023-05-10T00:28:56.839Z,99.90
2023-05-10T00:31:25.048Z,99.90
2023-05-10T00:33:53.272Z,99.90
2023-05-10T00:36:22.022Z,99.90
2023-05-10T00:38:50.397Z,99.90
2023-05-10T00:41:18.790Z,99.90
2023-05-10T00:43:47.019Z,99.90
2023-05-10T00:46:17.674Z,99.90
2023-05-10T00:48:47.032Z,99.90
2023-05-10T00:51:16.219Z,99.90
2023-05-10T00:53:45.990Z,99.90
2023-05-10T00:56:14.516Z,99.90
2023-05-10T00:58:43.188Z,99.90
2023-05-10T01:01:12.629Z,99.90
2023-05-10T01:03:42.642Z,99.90
2023-05-10T01:06:12.401Z,99.90
2023-05-10T01:08:41.217Z,99.90
2023-05-10T01:11:09.979Z,99.90
2023-05-10T01:13:40.598Z,99.90
2023-05-10T01:16:09.483Z,99.90
2023-05-10T01:18:43.103Z,99.90
2023-05-10T01:21:23.015Z,99.90
2023-05-10T01:24:15.400Z,99.90
2023-05-10T01:27:16.938Z,99.90
2023-05-10T01:30:24.664Z,99.90
2023-05-10T01:33:03.960Z,99.90
2023-05-10T01:35:39.802Z,99.90
2023-05-10T01:38:14.575Z,99.90
2023-05-10T01:40:50.609Z,99.90
2023-05-10T01:43:23.520Z,99.90
2023-05-10T01:46:02.378Z,99.90
2023-05-10T01:48:33.365Z,99.90
2023-05-10T01:51:01.872Z,99.90
2023-05-10T01:53:31.260Z,99.90
2023-05-10T01:56:01.278Z,99.90
2023-05-10T01:58:32.585Z,99.90
2023-05-10T02:01:03.510Z,99.90
2023-05-10T02:03:34.799Z,99.90
2023-05-10T02:06:04.661Z,99.90
2023-05-10T02:08:33.813Z,99.90
2023-05-10T02:11:03.415Z,99.90
2023-05-10T02:13:33.838Z,99.90
2023-05-10T02:16:03.783Z,99.90
2023-05-10T02:18:35.564Z,99.90
2023-05-10T02:21:05.189Z,99.90
2023-05-10T02:23:34.094Z,99.90
2023-05-10T02:26:03.628Z,99.90
2023-05-10T02:28:32.837Z,99.90
2023-05-10T02:31:01.675Z,99.90
2023-05-10T02:33:33.844Z,99.90
2023-05-10T02:36:04.827Z,99.90
2023-05-10T02:38:34.769Z,99.90
2023-05-10T02:41:04.610Z,99.90
2023-05-10T02:43:34.860Z,99.90
2023-05-10T02:46:03.593Z,99.90
2023-05-10T02:48:33.407Z,99.90
2023-05-10T02:51:09.284Z,99.90
2023-05-10T02:53:40.654Z,99.90
2023-05-10T02:56:15.286Z,99.90
2023-05-10T02:58:43.488Z,99.90
2023-05-10T03:01:11.896Z,99.90
2023-05-10T03:03:41.604Z,99.90
2023-05-10T03:06:10.610Z,99.90
2023-05-10T03:08:39.090Z,99.90
2023-05-10T03:11:29.756Z,99.90
2023-05-10T03:14:10.046Z,99.90
2023-05-10T03:16:45.127Z,99.90
2023-05-10T03:19:20.568Z,99.90
2023-05-10T03:21:53.674Z,99.90
2023-05-10T03:24:25.358Z,99.90
2023-05-10T03:26:57.867Z,99.90
2023-05-10T03:29:28.302Z,99.90
2023-05-10T03:31:56.650Z,99.90
2023-05-10T03:34:27.820Z,99.90
2023-05-10T03:36:56.094Z,99.90
2023-05-10T03:39:24.303Z,99.90
2023-05-10T03:41:52.537Z,99.90
2023-05-10T03:44:20.823Z,99.90
2023-05-10T03:46:49.103Z,99.90
2023-05-10T03:49:17.680Z,99.90
2023-05-10T03:51:47.385Z,99.90
2023-05-10T03:54:15.877Z,99.90
2023-05-10T03:56:44.149Z,99.90
2023-05-10T03:59:12.473Z,99.90
2023-05-10T04:01:40.683Z,99.90
2023-05-10T04:04:09.071Z,99.90
2023-05-10T04:06:37.417Z,99.90
2023-05-10T04:09:07.283Z,99.90
2023-05-10T04:11:35.631Z,99.90
2023-05-10T04:14:04.170Z,99.90
2023-05-10T04:16:32.415Z,99.90
2023-05-10T04:19:00.956Z,99.90
2023-05-10T04:21:29.208Z,99.90
2023-05-10T04:23:57.537Z,99.90
2023-05-10T04:26:27.203Z,99.90
2023-05-10T04:28:55.496Z,99.90
2023-05-10T04:31:23.913Z,99.90
2023-05-10T04:33:53.819Z,99.90
2023-05-10T04:36:21.975Z,99.90
2023-05-10T04:38:50.359Z,99.90
2023-05-10T04:41:18.532Z,99.90
2023-05-10T04:43:50.110Z,99.90
2023-05-10T04:46:18.270Z,99.90
2023-05-10T04:48:46.787Z,99.90
2023-05-10T04:51:14.937Z,99.90
2023-05-10T04:53:46.495Z,99.90
2023-05-10T04:56:19.501Z,99.90
2023-05-10T04:58:49.152Z,99.90
2023-05-10T05:01:17.440Z,99.90
2023-05-10T05:03:45.925Z,99.90
2023-05-10T05:06:14.202Z,99.90
2023-05-10T05:08:42.428Z,99.90
2023-05-10T05:11:10.901Z,99.90
2023-05-10T05:13:39.436Z,99.90
2023-05-10T05:16:09.553Z,99.90
2023-05-10T05:18:37.935Z,99.90
2023-05-10T05:21:15.247Z,99.90
2023-05-10T05:23:43.738Z,99.90
2023-05-10T05:26:12.223Z,99.90
2023-05-10T05:28:40.305Z,99.90
2023-05-10T05:31:10.406Z,99.90
2023-05-10T05:33:38.891Z,99.90
2023-05-10T05:36:07.959Z,99.90
2023-05-10T05:38:36.231Z,99.90
2023-05-10T05:41:04.730Z,99.90
2023-05-10T05:43:32.895Z,99.90
2023-05-10T05:46:01.281Z,99.90
2023-05-10T05:48:32.254Z,99.90
2023-05-10T05:51:00.538Z,99.90
2023-05-10T05:53:28.794Z,99.90
2023-05-10T05:55:59.311Z,99.90
2023-05-10T05:58:27.988Z,99.90
2023-05-10T06:00:56.338Z,99.90
2023-05-10T06:03:24.755Z,99.90
2023-05-10T06:05:54.377Z,99.90
2023-05-10T06:08:22.688Z,99.90
2023-05-10T06:10:50.997Z,99.90
2023-05-10T06:13:19.262Z,99.90
2023-05-10T06:15:47.782Z,99.90
2023-05-10T06:18:15.975Z,99.90
2023-05-10T06:20:44.695Z,99.90
2023-05-10T06:23:14.430Z,99.90
2023-05-10T06:25:42.646Z,99.90
2023-05-10T06:28:10.918Z,99.90
2023-05-10T06:30:39.572Z,99.90
2023-05-10T06:33:07.965Z,99.90
2023-05-10T06:35:36.280Z,99.90
2023-05-10T06:38:04.602Z,99.90
2023-05-10T06:40:34.297Z,99.90
2023-05-10T06:43:02.587Z,99.90
2023-05-10T06:45:31.003Z,99.90
2023-05-10T06:47:59.170Z,99.90
2023-05-10T06:50:27.436Z,99.90
2023-05-10T06:52:56.548Z,99.90
2023-05-10T06:55:24.759Z,99.90
2023-05-10T06:57:54.910Z,99.90
2023-05-10T07:00:23.653Z,99.90
2023-05-10T07:02:52.184Z,99.90
2023-05-10T07:05:21.251Z,99.90
2023-05-10T07:07:49.990Z,99.90
2023-05-10T07:10:18.654Z,99.90
2023-05-10T07:12:46.897Z,99.90
2023-05-10T07:15:17.559Z,99.90
2023-05-10T07:17:46.554Z,99.90
2023-05-10T07:20:15.554Z,99.90
2023-05-10T07:22:44.026Z,99.90
2023-05-10T07:25:12.844Z,99.90
2023-05-10T07:27:41.063Z,99.90
2023-05-10T07:30:10.619Z,99.90
2023-05-10T07:32:40.556Z,99.90
2023-05-10T07:35:09.618Z,99.90
2023-05-10T07:37:38.148Z,99.90
2023-05-10T07:40:07.374Z,99.90
2023-05-10T07:42:35.465Z,99.90
2023-05-10T07:45:04.280Z,99.90
2023-05-10T07:47:32.438Z,99.90
2023-05-10T07:50:02.026Z,99.90
2023-05-10T07:52:30.598Z,99.90
2023-05-10T07:54:58.853Z,99.90
2023-05-10T07:57:27.030Z,99.90
2023-05-10T07:59:55.427Z,99.90
2023-05-10T08:02:23.654Z,99.90
2023-05-10T08:04:51.797Z,99.90
2023-05-10T08:07:21.512Z,99.90
2023-05-10T08:09:49.614Z,99.90
2023-05-10T08:12:17.757Z,99.90
2023-05-10T08:14:46.404Z,99.90
2023-05-10T08:17:14.683Z,99.90
2023-05-10T08:19:43.045Z,99.90
2023-05-10T08:22:11.353Z,99.90
2023-05-10T08:24:42.930Z,99.90
2023-05-10T08:27:11.417Z,99.40
2023-05-10T08:29:49.686Z,99.80
2023-05-10T08:32:18.956Z,99.90
2023-05-10T08:34:47.407Z,98.40
2023-05-10T08:37:15.716Z,99.00
2023-05-10T08:39:46.264Z,98.60
2023-05-10T08:42:17.899Z,97.50
2023-05-10T08:44:48.254Z,95.80
2023-05-10T08:47:20.549Z,96.30
2023-05-10T08:49:50.093Z,96.30
2023-05-10T08:52:19.532Z,97.10
2023-05-10T08:54:49.622Z,95.50
2023-05-10T08:57:18.097Z,95.10
2023-05-10T08:59:46.383Z,94.10
2023-05-10T09:02:18.587Z,95.10
2023-05-10T09:04:47.046Z,94.00
2023-05-10T09:07:15.768Z,93.70
2023-05-10T09:09:44.750Z,92.40
2023-05-10T09:12:16.662Z,92.80
2023-05-10T09:14:46.852Z,92.10
2023-05-10T09:17:15.389Z,92.10
2023-05-10T09:19:43.559Z,92.80
2023-05-10T09:22:12.563Z,91.10
2023-05-10T09:24:45.219Z,92.00
2023-05-10T09:27:14.897Z,92.10
2023-05-10T09:29:44.576Z,91.00
2023-05-10T09:32:13.812Z,90.90
2023-05-10T09:34:43.465Z,89.40
2023-05-10T09:37:11.647Z,88.70
2023-05-10T09:39:40.349Z,89.20
2023-05-10T09:42:10.196Z,89.40
2023-05-10T09:44:41.888Z,89.60
2023-05-10T09:47:10.299Z,88.60
2023-05-10T09:49:38.612Z,87.00
2023-05-10T09:52:08.028Z,89.10
2023-05-10T09:54:37.144Z,87.30
2023-05-10T09:57:06.109Z,88.40
2023-05-10T09:59:36.254Z,87.60
2023-05-10T10:02:06.007Z,91.30
2023-05-10T10:04:34.448Z,90.50
2023-05-10T10:07:04.848Z,84.90
2023-05-10T10:09:33.617Z,86.50
2023-05-10T10:12:02.344Z,85.00
2023-05-10T10:14:31.476Z,84.10
2023-05-10T10:19:36.594Z,84.10
2023-05-10T10:22:05.395Z,82.20
2023-05-10T10:24:33.632Z,86.00
2023-05-10T10:27:11.374Z,85.80
2023-05-10T10:29:46.783Z,83.50
2023-05-10T10:32:24.662Z,82.60
2023-05-10T10:34:56.249Z,82.00
2023-05-10T10:37:24.787Z,83.00
2023-05-10T10:39:53.127Z,84.00
2023-05-10T10:42:48.212Z,80.80
2023-05-10T10:45:16.966Z,81.60
2023-05-10T10:47:46.235Z,81.70
2023-05-10T10:50:17.533Z,80.60
2023-05-10T10:52:46.297Z,82.30
2023-05-10T10:55:16.077Z,83.50
2023-05-10T10:57:50.791Z,81.40
2023-05-10T11:00:37.926Z,81.30
2023-05-10T11:03:08.473Z,80.10
2023-05-10T11:05:45.623Z,81.70
2023-05-10T11:08:17.274Z,82.60
2023-05-10T11:11:09.206Z,82.30
2023-05-10T11:13:41.374Z,82.60
2023-05-10T11:16:15.107Z,80.30
2023-05-10T11:18:53.803Z,77.40
2023-05-10T11:21:23.958Z,80.50
2023-05-10T11:23:53.570Z,80.80
2023-05-10T11:26:24.321Z,79.80
2023-05-10T11:28:52.520Z,80.30
2023-05-10T11:31:21.938Z,79.60
2023-05-10T11:33:52.320Z,79.10
2023-05-10T11:36:23.403Z,79.40
2023-05-10T11:38:51.727Z,81.00
2023-05-10T11:41:22.952Z,81.40
2023-05-10T11:43:53.003Z,79.00
2023-05-10T11:46:22.520Z,80.40
2023-05-10T11:48:53.329Z,80.70
2023-05-10T11:51:25.120Z,82.70
2023-05-10T11:53:56.081Z,78.50
2023-05-10T11:56:24.620Z,79.80
2023-05-10T11:58:56.685Z,80.60
2023-05-10T12:01:26.416Z,78.10
2023-05-10T12:03:56.541Z,78.40
2023-05-10T12:06:29.832Z,79.10
2023-05-10T12:08:58.123Z,79.60
2023-05-10T12:11:28.274Z,79.10
2023-05-10T12:13:57.852Z,79.80
2023-05-10T12:16:27.918Z,79.90
2023-05-10T12:18:58.593Z,80.80
2023-05-10T12:21:30.146Z,81.10
2023-05-10T12:24:02.378Z,81.90
2023-05-10T12:26:31.537Z,80.10
2023-05-10T12:29:15.289Z,81.60
2023-05-10T12:31:54.574Z,81.10
2023-05-10T12:34:27.624Z,83.90
2023-05-10T12:36:57.525Z,80.50
2023-05-10T12:39:26.093Z,81.60
2023-05-10T12:41:54.647Z,82.10
2023-05-10T12:44:22.865Z,81.20
2023-05-10T12:46:51.131Z,80.60
2023-05-10T12:49:20.802Z,78.40
2023-05-10T12:51:48.999Z,82.20
2023-05-10T12:54:18.525Z,79.00
2023-05-10T12:56:46.749Z,76.80
2023-05-10T12:59:14.931Z,76.30
2023-05-10T13:01:43.433Z,77.10
2023-05-10T13:04:11.935Z,74.30
2023-05-10T13:06:40.346Z,76.90
2023-05-10T13:09:08.794Z,76.10
2023-05-10T13:11:38.680Z,78.30
2023-05-10T13:14:06.862Z,77.60
2023-05-10T13:16:35.189Z,77.20
2023-05-10T13:19:04.074Z,76.30
2023-05-10T13:21:32.375Z,79.10
2023-05-10T13:24:01.143Z,80.70
2023-05-10T13:26:29.593Z,79.10
2023-05-10T13:28:59.345Z,80.60
2023-05-10T13:31:27.751Z,81.40
2023-05-10T13:33:56.001Z,84.00
2023-05-10T13:36:24.218Z,81.20
2023-05-10T13:38:52.436Z,81.90
2023-05-10T13:41:20.843Z,81.60
2023-05-10T13:43:50.201Z,81.60
2023-05-10T13:46:20.386Z,81.80
2023-05-10T13:48:48.785Z,83.00
2023-05-10T13:51:16.874Z,82.50
2023-05-10T13:53:45.166Z,83.20
2023-05-10T13:56:13.632Z,83.00
2023-05-10T13:58:42.333Z,84.60
2023-05-10T14:01:10.567Z,85.50
2023-05-10T14:03:40.692Z,83.80
2023-05-10T14:06:09.826Z,84.00
2023-05-10T14:08:38.512Z,84.90
2023-05-10T14:11:07.004Z,84.70
2023-05-10T14:13:35.272Z,82.00
2023-05-10T14:16:03.582Z,81.30
2023-05-10T14:18:31.801Z,82.70
2023-05-10T14:21:01.393Z,82.70
2023-05-10T14:23:29.897Z,82.30
2023-05-10T14:25:58.738Z,83.00
2023-05-10T14:28:27.200Z,83.20
2023-05-10T14:30:55.445Z,83.00
2023-05-10T14:33:23.723Z,81.70
2023-05-10T14:35:52.046Z,81.80
2023-05-10T14:38:21.758Z,82.30
2023-05-10T14:40:50.053Z,82.40
2023-05-10T14:43:18.293Z,82.30
2023-05-10T14:45:47.659Z,83.00
2023-05-10T14:48:18.460Z,82.50
2023-05-10T14:50:47.802Z,82.80
2023-05-10T14:53:15.966Z,82.90
2023-05-10T14:55:45.710Z,84.10
2023-05-10T14:58:13.991Z,84.50
2023-05-10T15:00:43.300Z,85.80
2023-05-10T15:03:12.105Z,82.60
2023-05-10T15:05:40.685Z,85.20
2023-05-10T15:08:10.431Z,85.90
2023-05-10T15:10:38.921Z,85.60
2023-05-10T15:13:08.729Z,85.70
2023-05-10T15:15:37.139Z,84.60
2023-05-10T15:18:05.695Z,84.40
2023-05-10T15:20:33.947Z,84.80
2023-05-10T15:23:02.240Z,85.80
2023-05-10T15:25:30.538Z,85.80
2023-05-10T15:27:58.799Z,86.90
2023-05-10T15:30:28.431Z,85.20
2023-05-10T15:32:56.952Z,86.30
2023-05-10T15:35:25.117Z,86.10
2023-05-10T15:37:53.450Z,86.90
2023-05-10T15:40:21.856Z,86.80
2023-05-10T15:42:50.082Z,85.90
2023-05-10T15:45:18.573Z,84.90
2023-05-10T15:47:50.033Z,86.50
2023-05-10T15:50:18.467Z,84.90
2023-05-10T15:52:46.687Z,84.80
2023-05-10T15:55:15.234Z,85.40
2023-05-10T15:57:44.866Z,84.70
2023-05-10T16:00:14.498Z,84.80
2023-05-10T16:02:43.418Z,85.50
2023-05-10T16:05:13.990Z,84.60
2023-05-10T16:07:42.430Z,86.40
2023-05-10T16:10:13.059Z,86.20
2023-05-10T16:12:41.391Z,86.10
2023-05-10T16:15:10.825Z,85.30
2023-05-10T16:17:39.421Z,84.60
2023-05-10T16:20:08.992Z,87.00
2023-05-10T16:22:38.591Z,86.60
2023-05-10T16:25:07.826Z,87.30
2023-05-10T16:27:36.562Z,87.00
2023-05-10T16:30:05.087Z,86.80
2023-05-10T16:32:33.953Z,88.60
2023-05-10T16:35:02.283Z,87.70
2023-05-10T16:37:30.464Z,87.00
2023-05-10T16:40:00.652Z,85.70
2023-05-10T16:42:29.286Z,89.40
2023-05-10T16:44:57.506Z,89.10
2023-05-10T16:47:27.310Z,90.00
2023-05-10T16:49:55.415Z,90.40
2023-05-10T16:52:23.895Z,89.40
2023-05-10T16:54:52.557Z,89.60
2023-05-10T16:57:22.151Z,89.70
2023-05-10T16:59:53.450Z,90.10
2023-05-10T17:02:22.127Z,90.10
2023-05-10T17:04:50.570Z,91.00
2023-05-10T17:07:19.175Z,90.10
2023-05-10T17:09:48.284Z,90.30
2023-05-10T17:12:16.560Z,91.40
2023-05-10T17:14:46.331Z,91.70
2023-05-10T17:17:14.679Z,91.30
2023-05-10T17:19:44.957Z,91.30
2023-05-10T17:22:14.205Z,91.60
2023-05-10T17:24:42.393Z,91.10
2023-05-10T17:27:10.623Z,91.50
2023-05-10T17:29:38.955Z,91.70
2023-05-10T17:32:09.338Z,90.80
2023-05-10T17:34:37.800Z,90.60
2023-05-10T17:37:06.420Z,90.60
2023-05-10T17:39:36.156Z,90.30
2023-05-10T17:42:05.478Z,90.70
2023-05-10T17:44:33.744Z,90.90
2023-05-10T17:47:03.463Z,90.90
2023-05-10T17:49:32.966Z,90.90
2023-05-10T17:52:01.243Z,90.50
2023-05-10T17:54:29.546Z,91.00
2023-05-10T17:56:58.123Z,90.90
2023-05-10T17:59:26.433Z,90.90
2023-05-10T18:01:54.650Z,90.70
2023-05-10T18:04:22.887Z,90.70
2023-05-10T18:06:55.266Z,90.60
2023-05-10T18:09:23.479Z,90.90
2023-05-10T18:11:51.591Z,91.00
2023-05-10T18:14:32.322Z,91.30
2023-05-10T18:17:08.163Z,91.20
2023-05-10T18:19:36.648Z,91.60
2023-05-10T18:22:08.154Z,91.70
2023-05-10T18:24:39.847Z,91.90
2023-05-10T18:27:10.232Z,91.90
2023-05-10T18:29:38.524Z,92.10
2023-05-10T18:32:07.733Z,92.30
2023-05-10T18:34:35.922Z,92.70
2023-05-10T18:37:07.754Z,93.30
2023-05-10T18:39:37.373Z,93.30
2023-05-10T18:42:06.153Z,93.50
2023-05-10T18:44:34.350Z,93.80
2023-05-10T18:47:02.716Z,93.90
2023-05-10T18:49:30.894Z,94.00
2023-05-10T18:51:59.094Z,94.40
2023-05-10T18:54:29.209Z,94.40
2023-05-10T18:56:58.776Z,94.70
2023-05-10T18:59:28.173Z,94.90
2023-05-10T19:01:57.577Z,95.30
2023-05-10T19:04:26.067Z,95.70
2023-05-10T19:06:54.243Z,95.90
2023-05-10T19:09:22.797Z,96.90
2023-05-10T19:11:52.450Z,97.10
2023-05-10T19:14:20.698Z,97.60
2023-05-10T19:16:49.876Z,98.00
2023-05-10T19:19:18.332Z,98.60
2023-05-10T19:21:47.357Z,99.60
2023-05-10T19:24:15.767Z,99.90
2023-05-10T19:26:44.621Z,99.90
2023-05-10T19:29:15.093Z,99.90
2023-05-10T19:31:43.997Z,99.90
2023-05-10T19:34:12.224Z,99.90
2023-05-10T19:36:40.474Z,99.90
2023-05-10T19:39:08.879Z,99.90
2023-05-10T19:41:37.059Z,99.90
2023-05-10T19:44:05.365Z,99.90
2023-05-10T19:46:35.173Z,99.90
2023-05-10T19:49:03.412Z,99.90
2023-05-10T19:51:31.598Z,99.90
2023-05-10T19:54:00.599Z,99.90
2023-05-10T19:56:29.680Z,99.90
2023-05-10T19:58:57.913Z,99.90
2023-05-10T20:01:26.429Z,99.90
2023-05-10T20:03:56.801Z,99.90
2023-05-10T20:06:25.018Z,99.90
2023-05-10T20:08:53.405Z,99.90
2023-05-10T20:11:21.797Z,99.90
2023-05-10T20:13:50.063Z,99.90
2023-05-10T20:16:18.471Z,99.90
2023-05-10T20:18:46.877Z,99.90
2023-05-10T20:21:16.549Z,99.90
2023-05-10T20:23:44.920Z,99.90
2023-05-10T20:26:13.606Z,99.90
2023-05-10T20:28:42.220Z,99.90
2023-05-10T20:31:10.682Z,99.90
2023-05-10T20:33:39.311Z,99.90
2023-05-10T20:36:09.595Z,99.90
2023-05-10T20:38:39.498Z,99.90
2023-05-10T20:41:07.721Z,99.90
2023-05-10T20:43:36.004Z,99.90
2023-05-10T20:46:05.698Z,99.90
2023-05-10T20:48:34.270Z,99.90
2023-05-10T20:51:03.317Z,99.90
2023-05-10T20:53:31.606Z,99.90
2023-05-10T20:56:01.347Z,99.90
2023-05-10T20:58:29.477Z,99.90
2023-05-10T21:00:57.762Z,99.90
2023-05-10T21:03:26.052Z,99.90
2023-05-10T21:05:54.182Z,99.90
2023-05-10T21:08:22.485Z,99.90
2023-05-10T21:10:51.000Z,99.90
2023-05-10T21:13:20.576Z,99.90
2023-05-10T21:15:49.123Z,99.90
2023-05-10T21:18:17.524Z,99.90
2023-05-10T21:20:45.859Z,99.90
2023-05-10T21:23:14.600Z,99.90
2023-05-10T21:25:42.905Z,99.90
2023-05-10T21:28:11.864Z,99.90
2023-05-10T21:30:41.572Z,99.90
2023-05-10T21:33:09.934Z,99.90
2023-05-10T21:35:39.443Z,99.90
2023-05-10T21:38:07.726Z,99.90
2023-05-10T21:40:36.040Z,99.90
2023-05-10T21:43:04.244Z,99.90
2023-05-10T21:45:33.260Z,99.90
2023-05-10T21:48:02.909Z,99.90
2023-05-10T21:50:31.207Z,99.90
2023-05-10T21:52:59.626Z,99.90
2023-05-10T21:55:28.155Z,99.90
2023-05-10T21:57:56.325Z,99.90
2023-05-10T22:00:24.816Z,99.90
2023-05-10T22:02:53.247Z,99.90
2023-05-10T22:05:22.914Z,99.90
2023-05-10T22:07:51.166Z,99.90
2023-05-10T22:10:19.706Z,99.90
2023-05-10T22:12:48.086Z,99.90
2023-05-10T22:15:16.528Z,99.90
2023-05-10T22:17:44.836Z,99.90
2023-05-10T22:20:13.268Z,99.90
2023-05-10T22:22:42.929Z,99.90
2023-05-10T22:25:11.630Z,99.90
2023-05-10T22:27:39.917Z,99.90
2023-05-10T22:30:09.526Z,99.90
2023-05-10T22:32:38.098Z,99.90
2023-05-10T22:35:07.161Z,99.90
2023-05-10T22:37:35.377Z,99.90
2023-05-10T22:40:06.029Z,99.90
2023-05-10T22:42:34.361Z,99.90
2023-05-10T22:45:02.619Z,99.90
2023-05-10T22:47:30.928Z,99.90
2023-05-10T22:49:59.325Z,99.90
2023-05-10T22:52:27.558Z,99.90
2023-05-10T22:54:55.842Z,99.90
2023-05-10T22:57:25.687Z,99.90
2023-05-10T22:59:54.332Z,99.90
2023-05-10T23:02:22.625Z,99.90
2023-05-10T23:04:50.873Z,99.90
2023-05-10T23:07:19.266Z,99.90
2023-05-10T23:09:47.439Z,99.90
2023-05-10T23:12:15.874Z,99.90
2023-05-10T23:14:46.589Z,99.90
2023-05-10T23:17:14.877Z,99.90
2023-05-10T23:19:43.156Z,99.90
2023-05-10T23:22:11.530Z,99.90
2023-05-10T23:24:39.741Z,99.90
2023-05-10T23:27:08.386Z,99.90
2023-05-10T23:29:36.657Z,99.90
2023-05-10T23:32:06.655Z,99.90
2023-05-10T23:34:35.045Z,99.90
2023-05-10T23:37:03.435Z,99.90
2023-05-10T23:39:31.942Z,99.90
2023-05-10T23:42:00.135Z,99.90
2023-05-10T23:44:28.334Z,99.90
2023-05-10T23:46:56.550Z,99.90
2023-05-10T23:49:26.222Z,99.90
2023-05-10T23:51:54.484Z,99.90
2023-05-10T23:54:22.747Z,99.90
2023-05-10T23:56:51.624Z,99.90
2023-05-10T23:59:19.926Z,99.90
